Time;durP1;ratioP1;P1;durP2;ratioP2;P2;SDS_P1;SDS_P2;PMS_P1;PMS_P2;Temp;Humidity;BMP_temperature;BMP_pressure;BME280_temperature;BME280_humidity;BME280_pressure;Samples;Min_cycle;Max_cycle;Signal;HPM_P1;HPM_P2
2024/03/12 00:01:26;;;;;;;8.43;5.60;;;7.30;99.90;;;;;;5029121;28;20205;-63
2024/03/12 00:03:54;;;;;;;8.80;5.90;;;7.40;99.90;;;;;;4967329;28;20274;-63
2024/03/12 00:06:22;;;;;;;7.97;5.43;;;7.30;99.90;;;;;;4981940;28;20308;-63
2024/03/12 00:08:50;;;;;;;8.53;5.10;;;7.40;99.90;;;;;;5035287;28;20239;-64
2024/03/12 00:11:17;;;;;;;7.47;4.40;;;7.30;99.90;;;;;;4984922;28;20248;-64
2024/03/12 00:13:44;;;;;;;10.57;5.70;;;7.40;99.90;;;;;;4960694;28;20192;-63
2024/03/12 00:16:11;;;;;;;8.30;4.63;;;7.40;99.90;;;;;;4975230;28;20339;-64
2024/03/12 00:18:40;;;;;;;9.70;5.47;;;7.40;99.90;;;;;;4958754;28;20205;-64
2024/03/12 00:21:07;;;;;;;10.07;6.17;;;7.40;99.90;;;;;;4975348;28;20215;-64
2024/03/12 00:23:34;;;;;;;9.20;6.00;;;7.40;99.90;;;;;;4966356;28;20568;-64
2024/03/12 00:26:03;;;;;;;7.73;5.33;;;7.40;99.90;;;;;;4961187;28;20267;-64
2024/03/12 00:28:31;;;;;;;11.33;5.23;;;7.40;99.90;;;;;;4963062;28;20204;-65
2024/03/12 00:30:59;;;;;;;8.53;4.23;;;7.50;99.90;;;;;;4962419;28;20283;-64
2024/03/12 00:33:26;;;;;;;7.93;4.83;;;7.40;99.90;;;;;;4972753;28;20199;-64
2024/03/12 00:35:53;;;;;;;6.77;4.67;;;7.40;99.90;;;;;;4967287;28;20231;-65
2024/03/12 00:38:20;;;;;;;7.33;5.00;;;7.50;99.90;;;;;;4965598;28;20220;-64
2024/03/12 00:40:48;;;;;;;7.57;4.40;;;7.50;99.90;;;;;;4979635;28;20196;-63
2024/03/12 00:43:17;;;;;;;6.40;3.70;;;7.40;99.90;;;;;;5034698;28;20200;-64
2024/03/12 00:45:44;;;;;;;4.53;3.67;;;7.40;99.90;;;;;;4967908;28;20196;-64
2024/03/12 00:48:13;;;;;;;4.30;3.17;;;7.50;99.90;;;;;;5004388;28;20239;-64
2024/03/12 00:50:42;;;;;;;3.77;3.37;;;7.50;99.90;;;;;;4966518;28;20193;-65
2024/03/12 00:53:11;;;;;;;7.10;3.87;;;7.50;99.90;;;;;;4995618;28;20228;-64
2024/03/12 00:55:40;;;;;;;3.30;3.00;;;7.50;99.90;;;;;;4960346;28;20207;-64
2024/03/12 00:58:10;;;;;;;3.77;2.93;;;7.60;99.90;;;;;;4991605;28;20700;-64
2024/03/12 01:00:39;;;;;;;3.40;2.77;;;7.60;99.90;;;;;;4965212;28;20205;-64
2024/03/12 01:03:08;;;;;;;6.47;4.07;;;7.60;99.90;;;;;;4978032;28;20328;-63
2024/03/12 01:05:37;;;;;;;6.53;4.30;;;7.60;99.90;;;;;;4967727;28;20201;-64
2024/03/12 01:08:06;;;;;;;5.67;3.83;;;7.70;99.90;;;;;;4975924;28;20231;-63
2024/03/12 01:10:34;;;;;;;6.60;3.97;;;7.60;99.90;;;;;;5034193;28;20656;-64
2024/03/12 01:13:05;;;;;;;12.90;5.90;;;7.70;99.90;;;;;;4968178;28;20334;-65
2024/03/12 01:15:32;;;;;;;10.80;6.30;;;7.70;99.90;;;;;;4968189;28;20234;-63
2024/03/12 01:18:01;;;;;;;6.93;4.50;;;7.70;99.90;;;;;;5003232;28;20204;-64
2024/03/12 01:20:28;;;;;;;9.73;5.40;;;7.70;99.90;;;;;;4967494;28;20279;-63
2024/03/12 01:22:55;;;;;;;8.00;5.00;;;7.70;99.90;;;;;;4995615;28;20287;-64
2024/03/12 01:25:23;;;;;;;7.57;5.00;;;7.70;99.90;;;;;;4969072;28;20517;-64
2024/03/12 01:27:51;;;;;;;7.13;4.33;;;7.70;99.90;;;;;;4988745;28;20208;-64
2024/03/12 01:30:20;;;;;;;11.03;5.83;;;7.70;99.90;;;;;;4962141;28;20207;-64
2024/03/12 01:32:51;;;;;;;7.73;5.07;;;7.70;99.90;;;;;;4981775;28;20252;-64
2024/03/12 01:35:20;;;;;;;7.53;4.83;;;7.70;99.90;;;;;;5037616;28;20671;-64
2024/03/12 01:37:49;;;;;;;5.43;4.00;;;7.70;99.90;;;;;;4974703;28;20181;-62
2024/03/12 01:40:21;;;;;;;4.60;3.80;;;7.70;99.90;;;;;;4982127;28;20276;-64
2024/03/12 01:42:49;;;;;;;5.57;3.37;;;7.70;99.90;;;;;;4973698;28;20272;-64
2024/03/12 01:45:18;;;;;;;5.47;3.50;;;7.60;99.90;;;;;;4970344;28;20699;-64
2024/03/12 01:47:46;;;;;;;5.90;4.00;;;7.60;99.90;;;;;;4980891;28;20208;-64
2024/03/12 01:50:13;;;;;;;6.17;3.90;;;7.60;99.90;;;;;;4970421;28;20200;-64
2024/03/12 01:52:43;;;;;;;6.73;4.03;;;7.70;99.90;;;;;;4976189;28;20251;-64
2024/03/12 01:55:11;;;;;;;5.77;3.90;;;7.70;99.90;;;;;;4970696;28;20211;-65
2024/03/12 01:57:41;;;;;;;8.10;4.77;;;7.70;99.90;;;;;;5037633;28;20189;-65
2024/03/12 02:00:13;;;;;;;4.40;3.93;;;7.70;99.90;;;;;;5034151;28;20271;-64
2024/03/12 02:02:41;;;;;;;5.87;4.03;;;7.70;99.90;;;;;;4991597;28;20316;-65
2024/03/12 02:05:10;;;;;;;6.57;4.40;;;7.70;99.90;;;;;;4976321;28;20204;-65
2024/03/12 02:07:38;;;;;;;6.93;4.20;;;7.70;99.90;;;;;;4989031;28;20309;-64
2024/03/12 02:10:08;;;;;;;6.97;4.67;;;7.70;99.90;;;;;;4961937;28;20299;-64
2024/03/12 02:12:35;;;;;;;6.00;4.43;;;7.70;99.90;;;;;;4984256;28;20189;-65
2024/03/12 02:15:04;;;;;;;7.30;5.03;;;7.70;99.90;;;;;;5015907;28;20205;-64
2024/03/12 02:17:31;;;;;;;6.87;4.73;;;7.70;99.90;;;;;;4980795;28;20197;-64
2024/03/12 02:19:59;;;;;;;6.47;4.43;;;7.70;99.90;;;;;;4971711;28;20258;-64
2024/03/12 02:22:26;;;;;;;6.60;4.33;;;7.70;99.90;;;;;;4972152;28;20197;-63
2024/03/12 02:24:55;;;;;;;4.83;3.50;;;7.70;99.90;;;;;;4970467;28;20584;-64
2024/03/12 02:27:22;;;;;;;5.73;3.37;;;7.70;99.90;;;;;;4967884;28;20636;-63
2024/03/12 02:29:49;;;;;;;8.80;4.70;;;7.70;99.90;;;;;;4964340;28;20228;-65
2024/03/12 02:32:17;;;;;;;8.27;4.60;;;7.70;99.90;;;;;;4969558;28;20224;-64
2024/03/12 02:34:44;;;;;;;9.00;5.80;;;7.70;99.90;;;;;;4988196;28;20266;-64
2024/03/12 02:37:12;;;;;;;9.87;5.67;;;7.70;99.90;;;;;;4966685;28;20208;-64
2024/03/12 02:39:39;;;;;;;9.20;5.70;;;7.70;99.90;;;;;;4981596;28;20207;-64
2024/03/12 02:42:08;;;;;;;8.57;5.67;;;7.60;99.90;;;;;;4977804;28;20690;-64
2024/03/12 02:44:36;;;;;;;5.63;4.27;;;7.60;99.90;;;;;;4969147;28;20201;-63
2024/03/12 02:47:03;;;;;;;7.27;5.07;;;7.60;99.90;;;;;;4956494;28;20208;-64
2024/03/12 02:49:30;;;;;;;6.77;4.97;;;7.50;99.90;;;;;;4973042;28;20571;-64
2024/03/12 02:51:58;;;;;;;5.63;4.70;;;7.60;99.90;;;;;;4966170;28;20209;-64
2024/03/12 02:54:26;;;;;;;5.47;4.10;;;7.50;99.90;;;;;;4983596;28;20207;-64
2024/03/12 02:56:54;;;;;;;10.13;5.50;;;7.50;99.90;;;;;;4967487;28;20197;-63
2024/03/12 02:59:27;;;;;;;7.30;4.47;;;7.60;99.90;;;;;;4974842;28;20423;-64
2024/03/12 03:01:55;;;;;;;5.30;3.60;;;7.50;99.90;;;;;;4969412;28;20683;-64
2024/03/12 03:04:22;;;;;;;5.30;4.23;;;7.50;99.90;;;;;;4964030;28;20736;-64
2024/03/12 03:06:51;;;;;;;6.03;3.87;;;7.50;99.90;;;;;;4969345;28;20204;-63
2024/03/12 03:09:18;;;;;;;4.03;3.30;;;7.60;99.90;;;;;;4979547;28;20216;-64
2024/03/12 03:11:45;;;;;;;6.60;4.40;;;7.50;99.90;;;;;;4968374;28;20669;-64
2024/03/12 03:14:12;;;;;;;8.20;4.80;;;7.50;99.90;;;;;;4974137;28;20611;-64
2024/03/12 03:16:41;;;;;;;4.77;3.60;;;7.50;99.90;;;;;;4968726;28;20200;-64
2024/03/12 03:19:08;;;;;;;7.53;4.23;;;7.60;99.90;;;;;;4960477;28;20284;-64
2024/03/12 03:21:35;;;;;;;7.07;4.83;;;7.60;99.90;;;;;;4969660;28;20208;-64
2024/03/12 03:24:04;;;;;;;4.97;3.27;;;7.60;99.90;;;;;;4970073;28;20204;-64
2024/03/12 03:26:31;;;;;;;6.60;3.43;;;7.50;99.90;;;;;;4958862;28;20209;-64
2024/03/12 03:28:58;;;;;;;7.73;3.60;;;7.60;99.90;;;;;;4993355;28;20212;-63
2024/03/12 03:31:26;;;;;;;4.43;3.20;;;7.60;99.90;;;;;;4988169;28;20203;-63
2024/03/12 03:33:58;;;;;;;7.93;4.63;;;7.60;99.90;;;;;;4990159;28;20829;-64
2024/03/12 03:36:26;;;;;;;9.20;4.93;;;7.60;99.90;;;;;;4983134;28;20246;-63
2024/03/12 03:38:53;;;;;;;6.07;4.17;;;7.60;99.90;;;;;;4979923;28;20189;-65
2024/03/12 03:41:20;;;;;;;4.30;3.43;;;7.70;99.90;;;;;;4992326;28;20235;-64
2024/03/12 03:43:47;;;;;;;10.57;5.87;;;7.70;99.90;;;;;;4972435;28;20205;-64
2024/03/12 03:46:14;;;;;;;7.00;4.40;;;7.70;99.90;;;;;;4979819;28;20288;-65
2024/03/12 03:48:41;;;;;;;5.63;4.27;;;7.70;99.90;;;;;;4972396;28;20738;-63
2024/03/12 03:51:10;;;;;;;7.57;4.47;;;7.60;99.90;;;;;;4980277;28;20235;-64
2024/03/12 03:53:37;;;;;;;8.57;4.53;;;7.60;99.90;;;;;;5031778;28;20227;-64
2024/03/12 03:56:11;;;;;;;8.57;4.43;;;7.60;99.90;;;;;;4958176;28;20205;-65
2024/03/12 03:58:38;;;;;;;7.63;4.87;;;7.60;99.90;;;;;;4961743;28;20203;-63
2024/03/12 04:01:05;;;;;;;5.80;4.17;;;7.60;99.90;;;;;;4970728;28;20283;-64
2024/03/12 04:03:32;;;;;;;4.80;3.63;;;7.60;99.90;;;;;;4953363;28;20236;-64
2024/03/12 04:06:00;;;;;;;5.07;3.23;;;7.60;99.90;;;;;;5035592;28;20201;-63
2024/03/12 04:08:30;;;;;;;5.43;3.60;;;7.60;99.90;;;;;;4968431;28;20254;-65
2024/03/12 04:10:58;;;;;;;6.00;3.73;;;7.60;99.90;;;;;;4995161;28;20212;-64
2024/03/12 04:13:26;;;;;;;7.90;4.40;;;7.70;99.90;;;;;;4967512;28;20192;-63
2024/03/12 04:15:55;;;;;;;5.30;3.60;;;7.70;99.90;;;;;;5025936;28;20208;-64
2024/03/12 04:18:22;;;;;;;4.30;3.30;;;7.70;99.90;;;;;;4963712;28;20297;-64
2024/03/12 04:20:49;;;;;;;6.87;4.23;;;7.70;99.90;;;;;;4960102;28;20197;-65
2024/03/12 04:23:16;;;;;;;4.03;3.10;;;7.70;99.90;;;;;;5011706;28;20640;-64
2024/03/12 04:25:45;;;;;;;8.03;4.80;;;7.70;99.90;;;;;;4970629;28;20205;-64
2024/03/12 04:28:15;;;;;;;4.80;3.57;;;7.70;99.90;;;;;;5033812;28;20316;-64
2024/03/12 04:30:43;;;;;;;7.53;3.90;;;7.70;99.90;;;;;;4967764;28;20211;-64
2024/03/12 04:33:10;;;;;;;8.57;4.80;;;7.80;99.90;;;;;;5034763;28;20231;-64
2024/03/12 04:35:38;;;;;;;7.33;4.47;;;7.80;99.90;;;;;;5012572;28;20491;-64
2024/03/12 04:38:06;;;;;;;8.03;4.50;;;7.80;99.90;;;;;;4968885;28;20255;-64
2024/03/12 04:40:33;;;;;;;6.53;3.37;;;7.70;99.90;;;;;;4982192;28;20222;-64
2024/03/12 04:43:03;;;;;;;3.80;3.23;;;7.70;99.90;;;;;;4968334;28;20593;-65
2024/03/12 04:45:30;;;;;;;8.33;5.03;;;7.70;99.90;;;;;;4987458;28;20204;-64
2024/03/12 04:47:57;;;;;;;8.00;5.40;;;7.70;99.90;;;;;;4967807;28;20322;-64
2024/03/12 04:50:24;;;;;;;8.17;4.57;;;7.70;99.90;;;;;;4976813;28;20279;-64
2024/03/12 04:52:51;;;;;;;6.43;4.60;;;7.70;99.90;;;;;;4967970;28;20234;-65
2024/03/12 04:55:18;;;;;;;6.67;4.53;;;7.70;99.90;;;;;;4978072;28;20316;-65
2024/03/12 04:57:45;;;;;;;4.53;3.67;;;7.70;99.90;;;;;;4967501;28;20193;-64
2024/03/12 05:00:14;;;;;;;3.67;3.23;;;7.70;99.90;;;;;;4975510;28;20225;-64
2024/03/12 05:02:41;;;;;;;5.93;4.40;;;7.70;99.90;;;;;;5037902;28;20271;-64
2024/03/12 05:05:09;;;;;;;6.47;4.03;;;7.70;99.90;;;;;;4964563;28;20197;-63
2024/03/12 05:07:36;;;;;;;4.50;3.47;;;7.80;99.90;;;;;;4970452;28;20224;-63
2024/03/12 05:10:04;;;;;;;4.10;3.10;;;7.80;99.90;;;;;;4978751;28;20238;-64
2024/03/12 05:12:31;;;;;;;3.37;3.00;;;7.80;99.90;;;;;;5003784;28;20672;-65
2024/03/12 05:14:58;;;;;;;3.70;3.00;;;7.80;99.90;;;;;;4976676;28;20425;-65
2024/03/12 05:17:26;;;;;;;3.37;2.67;;;7.70;99.90;;;;;;5002481;28;20292;-64
2024/03/12 05:19:53;;;;;;;3.40;2.90;;;7.70;99.90;;;;;;4967587;28;20201;-63
2024/03/12 05:22:20;;;;;;;4.30;3.00;;;7.70;99.90;;;;;;4963959;28;20280;-64
2024/03/12 05:24:47;;;;;;;6.43;4.13;;;7.70;99.90;;;;;;5033610;28;20210;-64
2024/03/12 05:27:21;;;;;;;7.70;5.27;;;7.70;99.90;;;;;;4970710;28;20652;-63
2024/03/12 05:29:52;;;;;;;8.40;4.83;;;7.70;99.90;;;;;;4965324;28;20219;-63
2024/03/12 05:32:21;;;;;;;7.40;4.50;;;7.70;99.90;;;;;;4986502;28;20192;-63
2024/03/12 05:34:52;;;;;;;6.93;4.40;;;7.70;99.90;;;;;;4969547;28;20205;-64
2024/03/12 05:37:29;;;;;;;6.23;4.10;;;7.70;99.90;;;;;;4966700;28;20201;-63
2024/03/12 05:40:14;;;;;;;6.87;4.07;;;7.70;99.90;;;;;;4973987;28;20287;-64
2024/03/12 05:48:12;;;;;;;6.00;4.10;;;7.70;99.90;;;;;;4981210;28;20714;-64
2024/03/12 05:50:41;;;;;;;8.53;5.07;;;7.70;99.90;;;;;;4988484;28;20660;-64
2024/03/12 05:53:08;;;;;;;7.63;5.00;;;7.70;99.90;;;;;;4978052;28;20652;-64
2024/03/12 05:55:35;;;;;;;9.33;5.50;;;7.70;99.90;;;;;;4982707;28;20228;-64
2024/03/12 05:58:04;;;;;;;6.10;4.67;;;7.70;99.90;;;;;;4979126;28;20215;-64
2024/03/12 06:00:32;;;;;;;4.53;3.63;;;7.70;99.90;;;;;;5044402;28;20640;-64
2024/03/12 06:02:59;;;;;;;8.80;5.70;;;7.60;99.90;;;;;;4970120;28;20229;-64
2024/03/12 06:05:26;;;;;;;8.03;5.37;;;7.60;99.90;;;;;;4968474;28;20636;-64
2024/03/12 06:07:54;;;;;;;9.57;5.80;;;7.60;99.90;;;;;;4966705;28;20287;-64
2024/03/12 06:10:22;;;;;;;7.07;5.40;;;7.60;99.90;;;;;;4966791;28;20612;-64
2024/03/12 06:12:49;;;;;;;6.07;4.10;;;7.60;99.90;;;;;;4965272;28;20293;-64
2024/03/12 06:15:16;;;;;;;6.10;4.50;;;7.60;99.90;;;;;;4970021;28;20228;-64
2024/03/12 06:17:43;;;;;;;4.27;3.63;;;7.50;99.90;;;;;;4979801;28;20204;-64
2024/03/12 06:20:12;;;;;;;5.03;3.57;;;7.60;99.90;;;;;;4970427;28;20618;-64
2024/03/12 06:22:40;;;;;;;7.73;4.67;;;7.60;99.90;;;;;;4970278;28;20205;-64
2024/03/12 06:25:10;;;;;;;7.40;4.87;;;7.60;99.90;;;;;;4969545;28;20652;-64
2024/03/12 06:27:37;;;;;;;12.10;6.40;;;7.60;99.90;;;;;;5036472;28;20214;-64
2024/03/12 06:30:05;;;;;;;9.43;6.53;;;7.70;99.90;;;;;;5036444;28;20599;-64
2024/03/12 06:32:33;;;;;;;9.87;5.77;;;7.70;99.90;;;;;;4970652;28;20236;-63
2024/03/12 06:35:00;;;;;;;9.20;6.03;;;7.70;99.90;;;;;;4957628;28;20541;-63
2024/03/12 06:37:27;;;;;;;7.50;5.10;;;7.70;99.90;;;;;;4974933;28;20262;-63
2024/03/12 06:39:54;;;;;;;6.43;5.00;;;7.70;99.90;;;;;;4974797;28;20216;-64
2024/03/12 06:42:29;;;;;;;5.27;3.67;;;7.70;99.90;;;;;;4975431;28;20196;-64
2024/03/12 06:44:57;;;;;;;6.17;4.83;;;7.70;99.90;;;;;;5022102;28;20648;-64
2024/03/12 06:47:25;;;;;;;6.03;4.13;;;7.60;99.90;;;;;;5019301;28;20191;-63
2024/03/12 06:49:52;;;;;;;16.73;9.17;;;7.60;99.90;;;;;;4958692;28;20216;-63
2024/03/12 06:52:22;;;;;;;31.13;15.77;;;7.60;99.90;;;;;;5020780;28;20225;-64
2024/03/12 06:54:50;;;;;;;25.97;12.33;;;7.60;99.90;;;;;;4966343;28;20200;-64
2024/03/12 06:57:19;;;;;;;19.73;10.57;;;7.70;99.90;;;;;;5009356;28;20201;-64
2024/03/12 06:59:48;;;;;;;15.43;8.10;;;7.70;99.90;;;;;;4960242;28;20196;-64
2024/03/12 07:02:17;;;;;;;10.93;6.43;;;7.60;99.90;;;;;;5001341;28;20196;-64
2024/03/12 07:04:47;;;;;;;12.80;6.17;;;7.60;99.90;;;;;;4960682;28;20196;-64
2024/03/12 07:07:18;;;;;;;12.93;6.87;;;7.60;99.90;;;;;;4972163;28;20205;-63
2024/03/12 07:09:45;;;;;;;11.93;6.53;;;7.60;99.90;;;;;;4947835;28;20209;-64
2024/03/12 07:12:14;;;;;;;9.13;5.80;;;7.60;99.90;;;;;;5058767;28;20201;-64
2024/03/12 07:14:41;;;;;;;11.53;6.03;;;7.50;99.90;;;;;;4962046;28;20258;-64
2024/03/12 07:17:10;;;;;;;8.70;6.20;;;7.50;99.90;;;;;;4985526;28;20284;-64
2024/03/12 07:19:38;;;;;;;9.07;5.20;;;7.60;99.90;;;;;;4967089;28;20204;-64
2024/03/12 07:22:07;;;;;;;10.60;6.20;;;7.60;99.90;;;;;;4983820;28;20204;-64
2024/03/12 07:24:35;;;;;;;12.53;6.10;;;7.60;99.90;;;;;;4966292;28;20208;-64
2024/03/12 07:27:03;;;;;;;10.00;5.70;;;7.60;99.90;;;;;;4978242;28;20225;-64
2024/03/12 07:29:32;;;;;;;5.30;4.37;;;7.60;99.90;;;;;;4967979;28;20225;-64
2024/03/12 07:32:00;;;;;;;5.67;4.43;;;7.60;99.90;;;;;;4978723;28;20201;-65
2024/03/12 07:34:29;;;;;;;8.23;6.10;;;7.60;99.90;;;;;;4966724;28;20675;-65
2024/03/12 07:36:57;;;;;;;6.70;5.20;;;7.60;99.90;;;;;;4973498;28;20197;-63
2024/03/12 07:39:31;;;;;;;6.50;4.43;;;7.70;99.90;;;;;;4960761;28;20189;-64
2024/03/12 07:41:59;;;;;;;5.47;4.40;;;7.70;99.90;;;;;;4983142;28;20219;-64
2024/03/12 07:44:26;;;;;;;7.77;5.57;;;7.70;99.90;;;;;;4965312;28;20194;-64
2024/03/12 07:46:54;;;;;;;15.93;9.30;;;7.70;99.90;;;;;;4965985;28;20195;-64
2024/03/12 07:49:21;;;;;;;13.70;8.33;;;7.80;99.90;;;;;;4961990;28;20283;-63
2024/03/12 07:51:52;;;;;;;10.17;6.60;;;7.80;99.90;;;;;;4978602;28;20228;-64
2024/03/12 07:54:19;;;;;;;10.33;5.90;;;7.70;99.90;;;;;;4979864;28;20225;-64
2024/03/12 07:56:50;;;;;;;6.90;4.83;;;7.70;99.90;;;;;;4965766;28;20205;-65
2024/03/12 07:59:21;;;;;;;7.87;5.10;;;7.80;99.90;;;;;;4975039;28;20291;-64
2024/03/12 08:01:49;;;;;;;5.87;4.70;;;7.80;99.90;;;;;;4963171;28;20305;-63
2024/03/12 08:04:16;;;;;;;8.63;4.97;;;7.70;99.90;;;;;;4966169;28;20315;-65
2024/03/12 08:06:44;;;;;;;8.57;5.30;;;7.80;99.90;;;;;;4964826;28;20196;-64
2024/03/12 08:09:13;;;;;;;12.40;6.20;;;7.80;99.90;;;;;;4963907;28;20209;-65
2024/03/12 08:11:40;;;;;;;9.73;7.07;;;7.80;99.90;;;;;;4967813;28;20202;-64
2024/03/12 08:14:08;;;;;;;9.57;6.30;;;7.80;99.90;;;;;;4975422;28;20212;-63
2024/03/12 08:16:36;;;;;;;10.53;7.30;;;7.80;99.90;;;;;;4960452;28;20202;-63
2024/03/12 08:19:04;;;;;;;12.87;6.37;;;7.80;99.90;;;;;;4968825;28;20272;-64
2024/03/12 08:21:32;;;;;;;11.73;6.67;;;7.80;99.90;;;;;;5026945;28;20208;-64
2024/03/12 08:23:59;;;;;;;9.33;6.77;;;7.70;99.90;;;;;;4967108;28;20266;-64
2024/03/12 08:26:28;;;;;;;15.47;8.10;;;7.80;99.90;;;;;;4956802;28;20203;-63
2024/03/12 08:28:56;;;;;;;16.13;9.20;;;7.80;99.90;;;;;;4987871;28;20304;-63
2024/03/12 08:31:23;;;;;;;10.80;7.23;;;7.70;99.90;;;;;;4967417;28;20208;-64
2024/03/12 08:33:51;;;;;;;12.83;7.70;;;7.70;99.90;;;;;;4983490;28;20807;-64
2024/03/12 08:36:18;;;;;;;14.17;7.40;;;7.80;99.90;;;;;;4966708;28;20319;-64
2024/03/12 08:38:47;;;;;;;12.33;7.20;;;7.70;99.90;;;;;;4989377;28;20197;-65
2024/03/12 08:41:14;;;;;;;12.47;7.77;;;7.80;99.90;;;;;;4969696;28;20194;-64
2024/03/12 08:43:43;;;;;;;10.03;6.63;;;7.80;99.90;;;;;;5003823;28;20269;-65
2024/03/12 08:46:10;;;;;;;9.97;6.17;;;7.80;99.90;;;;;;4965173;28;20204;-65
2024/03/12 08:48:37;;;;;;;8.33;5.53;;;7.80;99.90;;;;;;4971472;28;20254;-64
2024/03/12 08:51:05;;;;;;;9.00;5.87;;;7.80;99.90;;;;;;4966799;28;20247;-64
2024/03/12 08:53:33;;;;;;;9.27;6.13;;;7.80;99.90;;;;;;4968599;28;20280;-63
2024/03/12 08:56:00;;;;;;;6.53;4.83;;;7.80;99.90;;;;;;4966340;28;20540;-64
2024/03/12 08:58:30;;;;;;;9.33;5.73;;;7.80;99.90;;;;;;4965612;28;20203;-63
2024/03/12 09:00:58;;;;;;;8.33;5.27;;;7.80;99.90;;;;;;5002204;28;20190;-64
2024/03/12 09:03:26;;;;;;;10.97;5.53;;;7.90;99.90;;;;;;4962169;28;20224;-64
2024/03/12 09:05:53;;;;;;;10.83;6.97;;;7.80;99.90;;;;;;4995247;28;20193;-64
2024/03/12 09:08:22;;;;;;;9.07;5.63;;;7.90;99.90;;;;;;4982221;28;20279;-65
2024/03/12 09:10:49;;;;;;;12.90;7.73;;;7.90;99.90;;;;;;4998283;28;20280;-64
2024/03/12 09:13:18;;;;;;;13.97;7.53;;;7.90;99.90;;;;;;5042160;28;20211;-64
2024/03/12 09:15:46;;;;;;;13.97;8.53;;;7.90;99.90;;;;;;4996466;28;20266;-65
2024/03/12 09:18:18;;;;;;;14.13;7.57;;;7.90;99.90;;;;;;4964379;28;20206;-65
2024/03/12 09:20:45;;;;;;;13.07;7.53;;;7.90;99.90;;;;;;5028559;28;20617;-64
2024/03/12 09:23:13;;;;;;;15.33;8.50;;;7.90;99.90;;;;;;4958358;28;20271;-64
2024/03/12 09:25:41;;;;;;;13.30;7.83;;;7.90;99.90;;;;;;5018670;28;20205;-64
2024/03/12 09:28:09;;;;;;;21.03;9.23;;;7.90;99.90;;;;;;4960378;28;20664;-64
2024/03/12 09:30:36;;;;;;;18.50;9.33;;;7.90;99.90;;;;;;4976108;28;20202;-64
2024/03/12 09:33:04;;;;;;;14.90;9.10;;;7.90;99.90;;;;;;4999609;28;20213;-64
2024/03/12 09:35:32;;;;;;;13.90;7.97;;;7.90;99.90;;;;;;4992620;28;20197;-65
2024/03/12 09:37:59;;;;;;;10.53;6.87;;;7.90;99.90;;;;;;4965249;28;20816;-64
2024/03/12 09:40:26;;;;;;;10.87;6.70;;;7.90;99.90;;;;;;4992753;28;20285;-64
2024/03/12 09:42:57;;;;;;;11.10;5.97;;;8.00;99.90;;;;;;4964951;28;20291;-65
2024/03/12 09:45:24;;;;;;;11.53;5.97;;;8.00;99.90;;;;;;4984355;28;20201;-65
2024/03/12 09:47:52;;;;;;;13.07;7.57;;;8.00;99.90;;;;;;4976493;28;20208;-64
2024/03/12 09:50:21;;;;;;;17.63;7.53;;;8.00;99.90;;;;;;5023640;28;20227;-63
2024/03/12 09:52:50;;;;;;;14.67;7.77;;;8.00;99.90;;;;;;4968095;28;20280;-64
2024/03/12 09:55:19;;;;;;;12.17;6.53;;;8.00;99.90;;;;;;5003462;28;20276;-63
2024/03/12 09:57:46;;;;;;;10.07;6.47;;;8.10;99.90;;;;;;4968797;28;20204;-64
2024/03/12 10:00:19;;;;;;;20.70;9.10;;;8.10;99.90;;;;;;4991664;28;20198;-65
2024/03/12 10:02:51;;;;;;;19.33;9.37;;;8.10;99.90;;;;;;4967348;28;20282;-65
2024/03/12 10:05:21;;;;;;;17.33;8.90;;;8.10;99.90;;;;;;4997392;28;20270;-64
2024/03/12 10:08:12;;;;;;;17.50;8.03;;;8.10;99.90;;;;;;4967992;28;20259;-65
2024/03/12 10:10:43;;;;;;;17.07;7.70;;;8.10;99.90;;;;;;4982981;28;20216;-64
2024/03/12 10:13:15;;;;;;;11.13;6.70;;;8.10;99.90;;;;;;4965814;28;20192;-64
2024/03/12 10:15:54;;;;;;;17.10;8.70;;;8.10;99.90;;;;;;4982842;28;20789;-64
2024/03/12 10:18:21;;;;;;;19.30;8.07;;;8.20;99.90;;;;;;4961810;28;20736;-64
2024/03/12 10:20:50;;;;;;;10.10;6.27;;;8.20;99.90;;;;;;5049798;28;20718;-64
2024/03/12 10:23:20;;;;;;;16.60;6.60;;;8.10;99.90;;;;;;4968452;28;20215;-63
2024/03/12 10:25:48;;;;;;;19.70;9.83;;;8.20;99.90;;;;;;4989082;28;20269;-64
2024/03/12 10:28:16;;;;;;;16.37;9.53;;;8.20;99.90;;;;;;4956814;28;20209;-64
2024/03/12 10:30:45;;;;;;;17.37;9.50;;;8.30;99.90;;;;;;5016165;28;20240;-65
2024/03/12 10:33:17;;;;;;;17.03;8.93;;;8.20;99.90;;;;;;4972839;28;20283;-64
2024/03/12 10:35:46;;;;;;;13.53;7.53;;;8.20;99.90;;;;;;4977906;28;20201;-65
2024/03/12 10:38:14;;;;;;;14.83;8.30;;;8.20;99.90;;;;;;4957967;28;20197;-65
2024/03/12 10:40:42;;;;;;;20.93;9.97;;;8.20;99.90;;;;;;4983933;28;20193;-64
2024/03/12 10:43:10;;;;;;;13.97;7.80;;;8.20;99.90;;;;;;4968154;28;20614;-64
2024/03/12 10:45:38;;;;;;;19.30;9.50;;;8.40;99.90;;;;;;4981789;28;20505;-64
2024/03/12 10:48:09;;;;;;;19.90;10.17;;;8.20;99.90;;;;;;4970853;28;20188;-64
2024/03/12 10:50:40;;;;;;;15.20;7.87;;;8.30;99.90;;;;;;4992354;28;20713;-64
2024/03/12 10:53:11;;;;;;;15.60;8.50;;;8.30;99.90;;;;;;4966993;28;20209;-65
2024/03/12 10:55:39;;;;;;;13.10;7.50;;;8.30;99.90;;;;;;4982914;28;20227;-65
2024/03/12 10:58:08;;;;;;;12.17;6.70;;;8.30;99.90;;;;;;4961110;28;20213;-65
2024/03/12 11:00:39;;;;;;;23.43;10.40;;;8.40;99.90;;;;;;4974769;28;20216;-65
2024/03/12 11:03:09;;;;;;;16.67;8.90;;;8.30;99.90;;;;;;4966704;28;20228;-64
2024/03/12 11:05:38;;;;;;;16.23;8.80;;;8.30;99.90;;;;;;4970488;28;20202;-64
2024/03/12 11:08:10;;;;;;;17.33;8.90;;;8.30;99.90;;;;;;4991582;28;20293;-64
2024/03/12 11:10:38;;;;;;;14.93;7.47;;;8.40;99.90;;;;;;4967924;28;20217;-64
2024/03/12 11:13:07;;;;;;;12.70;6.57;;;8.40;99.90;;;;;;4969101;28;20223;-64
2024/03/12 11:15:35;;;;;;;11.33;6.93;;;8.40;99.90;;;;;;4974677;28;20270;-64
2024/03/12 11:18:05;;;;;;;14.53;7.87;;;8.50;99.90;;;;;;5011196;28;20266;-64
2024/03/12 11:20:33;;;;;;;11.10;6.37;;;8.50;99.90;;;;;;4966432;28;20200;-64
2024/03/12 11:23:01;;;;;;;12.40;7.23;;;8.50;99.90;;;;;;4967308;28;20204;-65
2024/03/12 11:25:32;;;;;;;22.23;10.97;;;8.60;99.90;;;;;;5006577;28;20292;-65
2024/03/12 11:28:20;;;;;;;22.30;10.77;;;8.60;99.90;;;;;;5004238;28;20196;-65
2024/03/12 11:30:48;;;;;;;14.97;8.33;;;8.60;99.90;;;;;;5012708;28;20342;-65
2024/03/12 11:33:52;;;;;;;15.03;8.40;;;8.60;99.90;;;;;;4995319;28;20241;-65
2024/03/12 11:36:44;;;;;;;15.97;9.03;;;8.60;99.90;;;;;;4996855;28;20264;-65
2024/03/12 11:39:15;;;;;;;16.90;8.80;;;8.60;99.90;;;;;;4970359;28;20581;-65
2024/03/12 11:42:14;;;;;;;12.60;6.67;;;8.60;99.90;;;;;;4967578;28;20250;-64
2024/03/12 11:44:52;;;;;;;13.47;6.50;;;8.60;99.90;;;;;;5040972;28;20198;-64
2024/03/12 11:47:30;;;;;;;19.20;9.60;;;8.60;99.90;;;;;;4969199;28;20281;-64
2024/03/12 11:49:57;;;;;;;24.73;11.30;;;8.60;99.90;;;;;;5029121;28;20204;-63
2024/03/12 11:52:27;;;;;;;23.27;10.47;;;8.60;99.90;;;;;;4972841;28;20560;-65
2024/03/12 11:54:54;;;;;;;21.33;11.47;;;8.60;99.90;;;;;;4973697;28;20220;-64
2024/03/12 11:57:22;;;;;;;23.00;10.90;;;8.60;99.90;;;;;;4967573;28;20271;-64
2024/03/12 11:59:51;;;;;;;23.67;10.83;;;8.60;99.90;;;;;;4967885;28;20218;-64
2024/03/12 12:02:20;;;;;;;25.17;11.67;;;8.60;99.90;;;;;;4988562;28;20187;-64
2024/03/12 12:04:51;;;;;;;21.73;11.40;;;8.70;99.90;;;;;;5028833;28;20202;-64
2024/03/12 12:07:19;;;;;;;16.70;9.53;;;8.70;99.90;;;;;;4958684;28;21057;-65
2024/03/12 12:09:47;;;;;;;19.93;11.33;;;8.70;99.90;;;;;;4968841;28;20302;-65
2024/03/12 12:12:15;;;;;;;20.80;10.40;;;8.80;99.90;;;;;;5036927;28;20581;-64
2024/03/12 12:14:47;;;;;;;15.27;8.83;;;8.80;99.90;;;;;;5032002;28;20213;-64
2024/03/12 12:17:22;;;;;;;14.67;9.37;;;8.80;99.90;;;;;;4978507;28;20219;-65
2024/03/12 12:20:04;;;;;;;15.30;8.67;;;8.80;99.90;;;;;;4970187;28;20202;-64
2024/03/12 12:22:34;;;;;;;16.93;8.80;;;8.90;99.90;;;;;;4977786;28;20259;-65
2024/03/12 12:25:02;;;;;;;17.90;9.47;;;8.90;99.90;;;;;;4987028;28;21003;-64
2024/03/12 12:27:32;;;;;;;27.23;12.83;;;8.90;99.90;;;;;;4972943;28;20203;-65
2024/03/12 12:29:59;;;;;;;26.57;13.40;;;8.90;99.90;;;;;;4989368;28;20280;-65
2024/03/12 12:32:28;;;;;;;24.00;10.63;;;8.90;99.90;;;;;;4964821;28;20196;-65
2024/03/12 12:34:56;;;;;;;19.83;10.83;;;8.90;99.90;;;;;;4965487;28;20219;-65
2024/03/12 12:37:24;;;;;;;21.77;11.50;;;8.80;99.90;;;;;;4973939;28;20191;-65
2024/03/12 12:39:51;;;;;;;19.47;10.97;;;8.90;99.90;;;;;;4975486;28;20255;-65
2024/03/12 12:42:19;;;;;;;20.77;10.20;;;8.90;99.90;;;;;;4965934;28;20232;-65
2024/03/12 12:44:51;;;;;;;14.07;8.57;;;8.90;99.90;;;;;;5033063;28;20232;-65
2024/03/12 12:47:18;;;;;;;21.37;11.40;;;8.90;99.90;;;;;;4963492;28;20204;-65
2024/03/12 12:49:54;;;;;;;18.20;10.17;;;8.90;99.90;;;;;;4978756;28;20210;-64
2024/03/12 12:52:23;;;;;;;15.60;8.87;;;9.00;99.90;;;;;;5032090;28;20211;-65
2024/03/12 12:54:57;;;;;;;13.73;8.43;;;9.00;99.90;;;;;;4982298;28;20211;-65
2024/03/12 12:57:27;;;;;;;15.77;8.73;;;8.90;99.90;;;;;;4962196;28;20209;-65
2024/03/12 12:59:55;;;;;;;22.53;11.60;;;8.90;99.90;;;;;;4983504;28;20342;-65
2024/03/12 13:02:23;;;;;;;22.10;10.33;;;8.90;99.90;;;;;;4965760;28;20207;-65
2024/03/12 13:04:57;;;;;;;18.03;9.50;;;9.00;99.90;;;;;;4972861;28;20221;-65
2024/03/12 13:07:29;;;;;;;17.87;9.97;;;8.90;99.90;;;;;;4961257;28;21588;-65